Latest Weather Observations for Lord Howe Island Windy Point

IDN60801

Issued at 8:03 pm EST Tuesday 26 July 2016 (issued every 30 minutes, with the page automatically refreshed every 10 minutes)

About weather observations | Map of weather stations | Latest weather observations for NSW | Other Formats
Station Details ID: 200715 Name: LORD HOWE ISLAND WINDY POINT Lat: -31.54 Lon: 159.07 Height: 4.0 m
Data from the previous 72 hours. | See also: Recent months for locations in New South Wales
Date/Time
EST
Temp
°C
App
Temp
°C
Dew
Point
°C
Rel
Hum
%
Delta-T
°C
Wind Press
QNH
hPa
Press
MSL
hPa
Rain since
9am
mm
Dir  Spd
km/h
Gust
km/h
Spd
kts
Gust
kts
26/08:00pm - - - - - NW 15 20 8 11 - - -
26/07:30pm - - - - - NW 15 20 8 11 - - -
26/07:00pm - - - - - NW 17 24 9 13 - - -
26/06:30pm - - - - - NW 17 26 9 14 - - -
26/06:00pm - - - - - NW 20 28 11 15 - - -
26/05:30pm - - - - - NW 19 22 10 12 - - -
26/05:00pm - - - - - NW 19 26 10 14 - - -
26/04:30pm - - - - - NW 20 28 11 15 - - -
26/04:00pm - - - - - NW 19 30 10 16 - - -
26/03:30pm - - - - - WNW 24 30 13 16 - - -
26/03:00pm - - - - - WNW 24 30 13 16 - - -
26/02:30pm - - - - - WNW 26 33 14 18 - - -
26/02:00pm - - - - - WNW 26 33 14 18 - - -
26/01:30pm - - - - - WNW 28 35 15 19 - - -
26/01:00pm - - - - - NW 26 32 14 17 - - -
26/12:30pm - - - - - WNW 26 33 14 18 - - -
26/12:00pm - - - - - NW 26 33 14 18 - - -
26/11:30am - - - - - WNW 26 33 14 18 - - -
26/11:00am - - - - - WNW 28 33 15 18 - - -
26/10:30am - - - - - WNW 26 33 14 18 - - -
26/10:00am - - - - - NW 22 28 12 15 - - -
26/09:30am - - - - - WNW 24 32 13 17 - - -
26/09:00am - - - - - WNW 22 28 12 15 - - -
26/08:30am - - - - - W 28 35 15 19 - - -
26/08:00am - - - - - W 32 35 17 19 - - -
26/07:30am - - - - - W 26 30 14 16 - - -
26/07:00am - - - - - W 26 32 14 17 - - -
26/06:30am - - - - - W 28 33 15 18 - - -
26/06:00am - - - - - WSW 26 33 14 18 - - -
26/05:30am - - - - - W 30 43 16 23 - - -
26/05:00am - - - - - WSW 30 33 16 18 - - -
26/04:30am - - - - - WSW 30 35 16 19 - - -
26/04:00am - - - - - WSW 24 32 13 17 - - -
26/03:30am - - - - - WSW 30 39 16 21 - - -
26/03:00am - - - - - WSW 30 39 16 21 - - -
26/02:30am - - - - - W 32 41 17 22 - - -
26/02:00am - - - - - W 33 44 18 24 - - -
26/01:30am - - - - - W 33 41 18 22 - - -
26/01:00am - - - - - WSW 33 41 18 22 - - -
26/12:30am - - - - - WSW 35 43 19 23 - - -
26/12:00am - - - - - WSW 37 44 20 24 - - -
 
Date/Time
EST
Temp
°C
App
Temp
°C
Dew
Point
°C
Rel
Hum
%
Delta-T
°C
Wind Press
QNH
hPa
Press
MSL
hPa
Rain since
9am
mm
Dir  Spd
km/h
Gust
km/h
Spd
kts
Gust
kts
25/11:30pm - - - - - WSW 37 46 20 25 - - -
25/11:00pm - - - - - W 39 46 21 25 - - -
25/10:30pm - - - - - WSW 39 44 21 24 - - -
25/10:00pm - - - - - WSW 43 54 23 29 - - -
25/09:30pm - - - - - WSW 37 43 20 23 - - -
25/09:00pm - - - - - WSW 39 46 21 25 - - -
25/08:30pm - - - - - WSW 39 50 21 27 - - -
25/08:00pm - - - - - WSW 41 48 22 26 - - -
25/07:30pm - - - - - WSW 43 52 23 28 - - -
25/07:00pm - - - - - WSW 43 52 23 28 - - -
25/06:30pm - - - - - WSW 43 48 23 26 - - -
25/06:00pm - - - - - WSW 44 52 24 28 - - -
25/05:30pm - - - - - W 44 56 24 30 - - -
25/05:00pm - - - - - W 41 50 22 27 - - -
25/04:30pm - - - - - W 44 57 24 31 - - -
25/04:00pm - - - - - W 41 54 22 29 - - -
25/03:30pm - - - - - W 41 50 22 27 - - -
25/03:00pm - - - - - W 41 52 22 28 - - -
25/02:30pm - - - - - W 35 44 19 24 - - -
25/02:00pm - - - - - W 35 43 19 23 - - -
25/01:30pm - - - - - WSW 39 48 21 26 - - -
25/01:00pm - - - - - WSW 41 50 22 27 - - -
25/12:30pm - - - - - WSW 37 46 20 25 - - -
25/12:00pm - - - - - WSW 37 44 20 24 - - -
25/11:30am - - - - - WSW 33 41 18 22 - - -
25/11:00am - - - - - WSW 32 37 17 20 - - -
25/10:30am - - - - - SW 26 32 14 17 - - -
25/10:00am - - - - - SW 30 35 16 19 - - -
25/09:30am - - - - - WSW 32 39 17 21 - - -
25/09:00am - - - - - SW 37 44 20 24 - - -
25/08:30am - - - - - WSW 30 41 16 22 - - -
25/08:00am - - - - - W 26 30 14 16 - - -
25/07:30am - - - - - W 24 26 13 14 - - -
25/07:00am - - - - - W 24 28 13 15 - - -
25/06:30am - - - - - WNW 20 30 11 16 - - -
25/06:00am - - - - - WNW 19 28 10 15 - - -
25/05:30am - - - - - W 20 28 11 15 - - -
25/05:00am - - - - - WNW 17 22 9 12 - - -
25/04:30am - - - - - NW 24 32 13 17 - - -
25/04:00am - - - - - NW 24 30 13 16 - - -
25/03:30am - - - - - NW 20 28 11 15 - - -
25/03:00am - - - - - WNW 26 35 14 19 - - -
25/02:30am - - - - - WNW 20 26 11 14 - - -
25/02:00am - - - - - WNW 22 28 12 15 - - -
25/01:30am - - - - - WNW 22 30 12 16 - - -
25/01:00am - - - - - WNW 22 30 12 16 - - -
25/12:30am - - - - - NW 20 28 11 15 - - -
25/12:00am - - - - - NW 19 28 10 15 - - -
 
Date/Time
EST
Temp
°C
App
Temp
°C
Dew
Point
°C
Rel
Hum
%
Delta-T
°C
Wind Press
QNH
hPa
Press
MSL
hPa
Rain since
9am
mm
Dir  Spd
km/h
Gust
km/h
Spd
kts
Gust
kts
24/11:30pm - - - - - NW 17 24 9 13 - - -
24/11:00pm - - - - - NW 17 22 9 12 - - -
24/10:30pm - - - - - NW 17 22 9 12 - - -
24/10:00pm - - - - - NW 17 22 9 12 - - -
24/09:30pm - - - - - NW 20 26 11 14 - - -
24/09:00pm - - - - - NW 17 22 9 12 - - -
24/08:30pm - - - - - NW 13 17 7 9 - - -
24/08:00pm - - - - - NNW 7 13 4 7 - - -
24/07:30pm - - - - - NW 11 13 6 7 - - -
24/07:00pm - - - - - W 17 22 9 12 - - -
24/06:30pm - - - - - WNW 15 24 8 13 - - -
24/06:00pm - - - - - WNW 19 24 10 13 - - -
24/05:30pm - - - - - W 20 24 11 13 - - -
24/05:00pm - - - - - W 20 24 11 13 - - -
24/04:30pm - - - - - W 20 28 11 15 - - -
24/04:00pm - - - - - WSW 19 22 10 12 - - -
24/03:30pm - - - - - WSW 20 28 11 15 - - -
24/03:00pm - - - - - WSW 22 26 12 14 - - -
24/02:30pm - - - - - WSW 19 24 10 13 - - -
24/02:00pm - - - - - SW 20 26 11 14 - - -
24/01:30pm - - - - - SW 22 28 12 15 - - -
24/01:00pm - - - - - SW 26 32 14 17 - - -
24/12:30pm - - - - - SW 24 35 13 19 - - -
24/12:00pm - - - - - WSW 20 28 11 15 - - -
24/11:30am - - - - - SW 22 28 12 15 - - -
24/11:00am - - - - - SW 24 32 13 17 - - -
24/10:30am - - - - - SW 24 30 13 16 - - -
24/10:00am - - - - - SW 24 28 13 15 - - -
24/09:30am - - - - - SW 32 37 17 20 - - -
24/09:00am - - - - - SW 30 37 16 20 - - -
24/08:30am - - - - - SSW 32 39 17 21 - - -
24/08:00am - - - - - SW 28 35 15 19 - - -
24/07:30am - - - - - SW 35 44 19 24 - - -
24/07:00am - - - - - SSW 30 37 16 20 - - -
24/06:30am - - - - - SW 39 48 21 26 - - -
24/06:00am - - - - - WSW 37 44 20 24 - - -
24/05:30am - - - - - WSW 37 43 20 23 - - -
24/05:00am - - - - - WSW 41 50 22 27 - - -
24/04:30am - - - - - WSW 39 52 21 28 - - -
24/04:00am - - - - - WSW 43 50 23 27 - - -
24/03:30am - - - - - SW 43 50 23 27 - - -
24/03:00am - - - - - WSW 43 52 23 28 - - -
24/02:30am - - - - - WSW 44 57 24 31 - - -
24/02:00am - - - - - WSW 41 48 22 26 - - -
24/01:30am - - - - - WSW 44 52 24 28 - - -
24/01:00am - - - - - SW 37 52 20 28 - - -
24/12:30am - - - - - SW 39 48 21 26 - - -
24/12:00am - - - - - WSW 41 52 22 28 - - -
 
Date/Time
EST
Temp
°C
App
Temp
°C
Dew
Point
°C
Rel
Hum
%
Delta-T
°C
Wind Press
QNH
hPa
Press
MSL
hPa
Rain since
9am
mm
Dir  Spd
km/h
Gust
km/h
Spd
kts
Gust
kts
23/11:30pm - - - - - SW 41 46 22 25 - - -
23/11:00pm - - - - - SW 43 50 23 27 - - -
23/10:30pm - - - - - SW 46 59 25 32 - - -
23/10:00pm - - - - - SW 43 52 23 28 - - -
23/09:30pm - - - - - SW 41 48 22 26 - - -
23/09:00pm - - - - - SW 43 54 23 29 - - -
23/08:30pm - - - - - SW 44 54 24 29 - - -

Other Formats:

Comma delimited format used in spreadsheet applications
http://www.bom.gov.au/fwo/IDN60801/IDN60801.95995.axf

JavaScript Object Notation format (JSON) in row-major order
http://www.bom.gov.au/fwo/IDN60801/IDN60801.95995.json